Time;durP1;ratioP1;P1;durP2;ratioP2;P2;SDS_P1;SDS_P2;PMS_P1;PMS_P2;Temp;Humidity;BMP_temperature;BMP_pressure;BME280_temperature;BME280_humidity;BME280_pressure;Samples;Min_cycle;Max_cycle;Signal;HPM_P1;HPM_P2
2022/10/05 00:00:31;;;;;;;3.25;2.95;;;9.90;99.90;;;;;;5052694;28;20213;-81
2022/10/05 00:02:59;;;;;;;3.65;3.25;;;9.90;99.90;;;;;;5053024;28;20205;-81
2022/10/05 00:05:31;;;;;;;3.17;2.85;;;9.90;99.90;;;;;;5053096;28;20209;-81
2022/10/05 00:08:05;;;;;;;3.42;3.13;;;9.90;99.90;;;;;;5052484;28;20233;-81
2022/10/05 00:10:35;;;;;;;3.78;3.15;;;9.90;99.90;;;;;;5052572;28;20205;-80
2022/10/05 00:13:11;;;;;;;3.60;3.05;;;9.80;99.90;;;;;;5053006;28;20210;-80
2022/10/05 00:15:39;;;;;;;9.52;4.05;;;9.90;99.90;;;;;;5053011;28;20213;-80
2022/10/05 00:18:15;;;;;;;3.30;3.00;;;9.90;99.90;;;;;;5052677;28;20222;-80
2022/10/05 00:20:44;;;;;;;2.75;2.55;;;9.80;99.90;;;;;;5052400;28;20215;-80
2022/10/05 00:23:17;;;;;;;4.68;3.38;;;9.90;99.90;;;;;;5053123;28;20201;-85
2022/10/05 00:25:47;;;;;;;2.92;2.70;;;9.80;99.90;;;;;;5052579;28;20221;-85
2022/10/05 00:28:18;;;;;;;3.80;3.20;;;9.90;99.90;;;;;;5052414;28;20233;-85
2022/10/05 00:30:47;;;;;;;8.32;3.13;;;9.80;99.90;;;;;;5052489;28;20213;-85
2022/10/05 00:33:15;;;;;;;5.00;3.22;;;9.80;99.90;;;;;;5052269;28;20205;-85
2022/10/05 00:35:43;;;;;;;4.10;2.80;;;9.80;99.90;;;;;;5052531;28;20205;-85
2022/10/05 00:38:11;;;;;;;2.85;2.55;;;9.80;99.90;;;;;;5052576;28;20232;-85
2022/10/05 00:40:56;;;;;;;5.05;3.22;;;9.80;99.90;;;;;;5052832;28;20198;-85
2022/10/05 00:44:02;;;;;;;2.58;2.38;;;9.80;99.90;;;;;;5052518;28;20217;-86
2022/10/05 00:46:41;;;;;;;3.53;2.97;;;9.70;99.90;;;;;;5042105;28;20225;-85
2022/10/05 00:49:15;;;;;;;3.45;3.00;;;9.80;99.90;;;;;;5052357;28;20247;-85
2022/10/05 00:51:51;;;;;;;3.00;2.80;;;9.70;99.90;;;;;;5052546;28;20208;-85
2022/10/05 00:54:30;;;;;;;3.80;3.08;;;9.70;99.90;;;;;;5052634;28;20208;-85
2022/10/05 00:57:21;;;;;;;3.15;2.85;;;9.60;99.90;;;;;;5052291;28;20230;-85
2022/10/05 01:00:03;;;;;;;3.10;2.80;;;9.60;99.90;;;;;;5052178;28;20213;-86
2022/10/05 01:02:42;;;;;;;4.72;3.35;;;9.60;99.90;;;;;;5052393;28;20283;-85
2022/10/05 01:05:15;;;;;;;3.22;2.92;;;9.60;99.90;;;;;;5052643;28;20206;-85
2022/10/05 01:07:51;;;;;;;2.47;2.28;;;9.60;99.90;;;;;;5052010;28;20229;-85
2022/10/05 01:10:27;;;;;;;2.35;2.17;;;9.60;99.90;;;;;;5052014;28;20209;-86
2022/10/05 01:13:04;;;;;;;4.68;3.00;;;9.60;99.90;;;;;;5055238;28;20224;-85
2022/10/05 01:15:39;;;;;;;5.70;3.15;;;9.50;99.90;;;;;;5056147;28;20209;-85
2022/10/05 01:18:14;;;;;;;2.92;2.55;;;9.50;99.90;;;;;;5055978;28;20217;-85
2022/10/05 01:20:59;;;;;;;2.55;2.33;;;9.50;99.90;;;;;;5055643;28;20205;-85
2022/10/05 01:23:56;;;;;;;4.72;3.13;;;9.50;99.90;;;;;;5055624;28;20216;-86
2022/10/05 01:26:45;;;;;;;3.47;2.95;;;9.50;99.90;;;;;;5055343;28;20244;-86
2022/10/05 01:29:20;;;;;;;3.15;2.95;;;9.50;99.90;;;;;;5055756;28;20215;-85
2022/10/05 01:31:56;;;;;;;3.75;3.25;;;9.40;99.90;;;;;;5055490;28;20205;-85
2022/10/05 01:34:36;;;;;;;3.58;2.78;;;9.40;99.90;;;;;;5055746;28;20216;-86
2022/10/05 01:37:15;;;;;;;2.00;1.80;;;9.40;99.90;;;;;;5055494;28;20228;-85
2022/10/05 01:39:51;;;;;;;3.22;2.53;;;9.40;99.90;;;;;;5055354;28;20208;-86
2022/10/05 01:42:26;;;;;;;3.60;2.42;;;9.40;99.90;;;;;;5055998;28;20213;-85
2022/10/05 01:45:03;;;;;;;2.72;2.38;;;9.40;99.90;;;;;;5055803;28;20208;-86
2022/10/05 01:47:40;;;;;;;3.17;2.60;;;9.40;99.90;;;;;;5054996;28;20237;-86
2022/10/05 01:50:17;;;;;;;7.10;3.15;;;9.30;99.90;;;;;;5055003;28;20202;-86
2022/10/05 01:52:54;;;;;;;4.13;2.83;;;9.40;99.90;;;;;;5054902;28;20205;-85
2022/10/05 01:55:29;;;;;;;2.00;1.80;;;9.30;99.90;;;;;;5055394;28;20210;-86
2022/10/05 01:58:07;;;;;;;2.92;2.67;;;9.30;99.90;;;;;;5055493;28;20225;-86
2022/10/05 02:00:43;;;;;;;3.28;2.75;;;9.30;99.90;;;;;;5055323;28;20213;-86
2022/10/05 02:03:16;;;;;;;2.97;2.35;;;9.30;99.90;;;;;;5055268;28;20288;-86
2022/10/05 02:05:50;;;;;;;3.47;2.75;;;9.30;99.90;;;;;;5054924;28;20206;-86
2022/10/05 02:08:25;;;;;;;3.28;2.97;;;9.30;99.90;;;;;;5054803;28;20233;-86
2022/10/05 02:10:59;;;;;;;2.50;2.30;;;9.30;99.90;;;;;;5055123;28;20209;-86
2022/10/05 02:13:33;;;;;;;3.13;2.83;;;9.30;99.90;;;;;;5054949;28;20205;-86
2022/10/05 02:16:07;;;;;;;3.28;2.97;;;9.20;99.90;;;;;;5054733;28;20217;-86
2022/10/05 02:18:40;;;;;;;3.13;2.55;;;9.10;99.90;;;;;;5054377;28;20209;-86
2022/10/05 02:21:09;;;;;;;2.78;2.58;;;9.10;99.90;;;;;;5055239;28;20216;-86
2022/10/05 02:23:40;;;;;;;2.95;2.60;;;9.10;99.90;;;;;;5054450;28;20209;-86
2022/10/05 02:26:11;;;;;;;2.78;2.20;;;9.10;99.90;;;;;;5054458;28;20225;-86
2022/10/05 02:28:43;;;;;;;3.05;2.78;;;9.10;99.90;;;;;;5054133;28;20229;-86
2022/10/05 02:31:17;;;;;;;3.78;2.88;;;9.10;99.90;;;;;;5054562;28;20213;-86
2022/10/05 02:33:45;;;;;;;3.42;3.10;;;9.10;99.90;;;;;;5054684;28;20210;-86
2022/10/05 02:36:17;;;;;;;3.38;2.75;;;9.10;99.90;;;;;;5054325;28;20285;-86
2022/10/05 02:38:59;;;;;;;2.65;2.45;;;9.00;99.90;;;;;;5054236;28;20209;-86
2022/10/05 02:41:42;;;;;;;4.82;3.08;;;9.00;99.90;;;;;;5054290;28;20217;-85
2022/10/05 02:44:20;;;;;;;2.42;2.05;;;9.00;99.90;;;;;;5054394;28;20213;-86
2022/10/05 02:46:58;;;;;;;2.78;2.58;;;9.00;99.90;;;;;;5054577;28;20233;-86
2022/10/05 02:49:34;;;;;;;3.03;2.72;;;8.90;99.90;;;;;;5053447;28;20229;-86
2022/10/05 02:52:08;;;;;;;2.60;2.40;;;9.00;99.90;;;;;;5054517;28;20209;-86
2022/10/05 02:54:47;;;;;;;4.68;2.72;;;9.00;99.90;;;;;;5053990;28;20210;-86
2022/10/05 02:57:22;;;;;;;2.15;2.05;;;8.90;99.90;;;;;;5053773;28;20237;-86
2022/10/05 02:59:58;;;;;;;2.70;2.50;;;8.90;99.90;;;;;;5053698;28;20201;-86
2022/10/05 03:02:33;;;;;;;4.50;2.33;;;8.90;99.90;;;;;;5054192;28;20202;-86
2022/10/05 03:05:10;;;;;;;3.92;3.05;;;8.90;99.90;;;;;;5053933;28;20205;-86
2022/10/05 03:07:46;;;;;;;4.18;2.85;;;8.80;99.90;;;;;;5053795;28;20226;-85
2022/10/05 03:10:25;;;;;;;3.10;2.80;;;8.80;99.90;;;;;;5053644;28;20205;-86
2022/10/05 03:13:01;;;;;;;2.92;2.63;;;8.80;99.90;;;;;;5054131;28;20209;-85
2022/10/05 03:15:49;;;;;;;3.53;3.22;;;8.80;99.90;;;;;;5053810;28;20209;-86
2022/10/05 03:18:31;;;;;;;4.53;3.17;;;8.80;99.90;;;;;;5053411;28;20221;-85
2022/10/05 03:21:09;;;;;;;2.25;2.05;;;8.80;99.90;;;;;;5053428;28;20213;-85
2022/10/05 03:23:51;;;;;;;3.55;2.80;;;8.80;99.90;;;;;;5053687;28;20220;-85
2022/10/05 03:26:30;;;;;;;3.00;2.65;;;8.80;99.90;;;;;;5053343;28;20233;-85
2022/10/05 03:29:03;;;;;;;4.13;2.78;;;8.80;99.90;;;;;;5053324;28;20224;-87
2022/10/05 03:31:38;;;;;;;3.75;2.72;;;8.80;99.90;;;;;;5053478;28;20213;-85
2022/10/05 03:34:14;;;;;;;4.10;3.03;;;8.80;99.90;;;;;;5052826;28;20208;-85
2022/10/05 03:36:49;;;;;;;2.92;2.50;;;8.80;99.90;;;;;;5053503;28;20233;-85
2022/10/05 03:39:24;;;;;;;2.80;2.50;;;8.80;99.90;;;;;;5053047;28;20201;-86
2022/10/05 03:42:00;;;;;;;7.18;3.83;;;8.80;99.90;;;;;;5053242;28;20202;-85
2022/10/05 03:44:40;;;;;;;3.28;2.67;;;8.80;99.90;;;;;;5053254;28;20213;-85
2022/10/05 03:47:14;;;;;;;2.80;2.60;;;8.80;99.90;;;;;;5052941;28;20224;-85
2022/10/05 03:50:13;;;;;;;3.22;2.50;;;8.70;99.90;;;;;;5052986;28;20221;-85
2022/10/05 03:52:47;;;;;;;4.25;2.95;;;8.70;99.90;;;;;;5051329;28;20202;-85
2022/10/05 03:55:25;;;;;;;4.07;2.67;;;8.70;99.90;;;;;;5053432;28;20212;-86
2022/10/05 03:57:57;;;;;;;3.15;2.63;;;8.60;99.90;;;;;;5052977;28;20221;-85
2022/10/05 04:00:26;;;;;;;7.70;2.40;;;8.60;99.90;;;;;;5052856;28;20213;-85
2022/10/05 04:02:59;;;;;;;2.50;2.30;;;8.60;99.90;;;;;;5053346;28;20205;-85
2022/10/05 04:05:33;;;;;;;3.22;2.92;;;8.60;99.90;;;;;;5053029;28;20217;-86
2022/10/05 04:08:07;;;;;;;1.98;1.88;;;8.60;99.90;;;;;;5052546;28;20225;-86
2022/10/05 04:10:43;;;;;;;2.60;2.40;;;8.50;99.90;;;;;;5052800;28;20210;-86
2022/10/05 04:13:20;;;;;;;3.20;2.42;;;8.50;99.90;;;;;;5052586;28;20220;-86
2022/10/05 04:15:54;;;;;;;4.22;2.72;;;8.50;99.90;;;;;;5052862;28;20204;-85
2022/10/05 04:18:27;;;;;;;2.50;2.30;;;8.50;99.90;;;;;;5052578;28;20255;-85
2022/10/05 04:21:01;;;;;;;3.05;2.80;;;8.50;99.90;;;;;;5052536;28;20206;-85
2022/10/05 04:23:39;;;;;;;2.70;2.50;;;8.60;99.90;;;;;;5052697;28;20208;-85
2022/10/05 04:26:12;;;;;;;5.30;2.83;;;8.60;99.90;;;;;;5052117;28;20210;-85
2022/10/05 04:28:51;;;;;;;4.28;3.58;;;8.60;99.90;;;;;;5052667;28;20217;-86
2022/10/05 04:31:35;;;;;;;2.80;2.58;;;8.50;99.90;;;;;;5052502;28;20205;-85
2022/10/05 04:34:15;;;;;;;3.95;3.42;;;8.50;99.90;;;;;;5052372;28;20206;-85
2022/10/05 04:36:51;;;;;;;4.00;3.47;;;8.60;99.90;;;;;;5052361;28;20229;-85
2022/10/05 04:39:30;;;;;;;2.20;2.10;;;8.60;99.90;;;;;;5052417;28;20210;-85
2022/10/05 04:42:09;;;;;;;5.03;2.85;;;8.50;99.90;;;;;;5052612;28;20201;-85
2022/10/05 04:44:57;;;;;;;4.22;3.55;;;8.50;99.90;;;;;;5052282;28;20213;-85
2022/10/05 04:47:44;;;;;;;2.47;2.35;;;8.60;99.90;;;;;;5055098;28;20229;-85
2022/10/05 04:50:23;;;;;;;3.38;3.03;;;8.50;99.90;;;;;;5055790;28;20219;-85
2022/10/05 04:53:02;;;;;;;3.45;3.10;;;8.50;99.90;;;;;;5056832;28;20201;-86
2022/10/05 04:55:36;;;;;;;3.72;2.95;;;8.50;99.90;;;;;;5056433;28;20216;-85
2022/10/05 04:58:17;;;;;;;4.05;2.55;;;8.50;99.90;;;;;;5055818;28;20225;-85
2022/10/05 05:00:55;;;;;;;5.45;3.17;;;8.40;99.90;;;;;;5056131;28;20190;-85
2022/10/05 05:03:49;;;;;;;3.83;3.00;;;8.40;99.90;;;;;;5056221;28;20210;-85
2022/10/05 05:06:30;;;;;;;3.20;2.90;;;8.40;99.90;;;;;;5056260;28;20218;-85
2022/10/05 05:09:34;;;;;;;3.53;2.92;;;8.40;99.90;;;;;;5056323;28;20222;-85
2022/10/05 05:12:19;;;;;;;3.72;2.65;;;8.40;99.90;;;;;;5055935;28;20220;-85
2022/10/05 05:15:14;;;;;;;3.97;2.85;;;8.40;99.90;;;;;;5056208;28;20205;-85
2022/10/05 05:17:56;;;;;;;3.65;2.90;;;8.40;99.90;;;;;;5056684;28;20237;-85
2022/10/05 05:20:39;;;;;;;4.25;3.85;;;8.40;99.90;;;;;;5056665;28;20205;-85
2022/10/05 05:23:17;;;;;;;3.80;3.50;;;8.40;99.90;;;;;;5056134;28;20210;-85
2022/10/05 05:25:57;;;;;;;4.53;4.13;;;8.40;99.90;;;;;;5055459;28;20225;-85
2022/10/05 05:28:34;;;;;;;6.15;4.80;;;8.50;99.90;;;;;;5055496;28;20213;-85
2022/10/05 05:31:10;;;;;;;3.72;3.42;;;8.50;99.90;;;;;;5055396;28;20225;-86
2022/10/05 05:33:50;;;;;;;3.40;3.10;;;8.50;99.90;;;;;;5056091;28;20292;-85
2022/10/05 05:36:34;;;;;;;4.03;3.70;;;8.60;99.90;;;;;;5055720;28;20222;-85
2022/10/05 05:39:26;;;;;;;5.47;4.10;;;8.60;99.90;;;;;;5055319;28;20208;-86
2022/10/05 05:42:01;;;;;;;4.55;3.67;;;8.70;99.90;;;;;;5053852;28;20198;-84
2022/10/05 05:44:33;;;;;;;5.90;4.38;;;8.70;99.90;;;;;;5053530;28;20212;-86
2022/10/05 05:47:16;;;;;;;9.00;4.32;;;8.70;99.90;;;;;;5054557;28;20232;-86
2022/10/05 05:49:59;;;;;;;7.78;4.72;;;8.80;99.90;;;;;;5054380;28;20233;-86
2022/10/05 05:52:39;;;;;;;5.53;4.50;;;8.80;99.90;;;;;;5049353;28;20224;-86
2022/10/05 05:55:17;;;;;;;3.95;3.58;;;8.80;99.90;;;;;;5053768;28;20198;-86
2022/10/05 05:57:51;;;;;;;5.85;4.55;;;8.90;99.90;;;;;;5054138;28;20228;-86
2022/10/05 06:00:21;;;;;;;5.47;4.40;;;8.90;99.90;;;;;;5054624;28;20210;-86
2022/10/05 06:02:56;;;;;;;8.68;5.15;;;9.00;99.90;;;;;;5053883;28;20209;-86
2022/10/05 06:05:30;;;;;;;6.43;5.00;;;9.00;99.90;;;;;;5054702;28;20193;-86
2022/10/05 06:08:02;;;;;;;7.75;4.97;;;9.10;99.90;;;;;;5054400;28;20218;-86
2022/10/05 06:10:40;;;;;;;10.80;5.30;;;9.20;99.90;;;;;;5054169;28;20221;-86
2022/10/05 06:13:18;;;;;;;8.13;5.85;;;9.20;99.90;;;;;;5054434;28;20256;-86
2022/10/05 06:15:52;;;;;;;7.85;5.25;;;9.30;99.90;;;;;;5054033;28;20201;-86
2022/10/05 06:18:23;;;;;;;11.50;4.63;;;9.40;99.90;;;;;;5054209;28;20487;-86
2022/10/05 06:21:00;;;;;;;7.43;5.07;;;9.40;99.90;;;;;;5054084;28;20289;-86
2022/10/05 06:23:37;;;;;;;18.17;7.05;;;9.40;99.90;;;;;;5054093;28;20197;-86
2022/10/05 06:26:20;;;;;;;8.18;6.43;;;9.50;99.90;;;;;;5053924;28;20213;-86
2022/10/05 06:28:56;;;;;;;5.53;5.03;;;9.50;99.90;;;;;;5062630;28;20201;-86
2022/10/05 06:31:40;;;;;;;6.05;5.13;;;9.60;99.90;;;;;;5053662;28;20229;-86
2022/10/05 06:34:22;;;;;;;5.15;4.40;;;9.60;99.90;;;;;;5053673;28;20216;-86
2022/10/05 06:36:53;;;;;;;6.63;5.05;;;9.70;99.90;;;;;;5053350;28;20229;-86
2022/10/05 06:39:51;;;;;;;17.65;5.00;;;9.60;99.90;;;;;;5046547;28;20206;-86
2022/10/05 06:42:42;;;;;;;5.07;4.13;;;9.70;99.90;;;;;;5046116;28;20213;-85
2022/10/05 06:45:20;;;;;;;6.85;4.55;;;9.70;99.90;;;;;;5053344;28;20202;-86
2022/10/05 06:47:54;;;;;;;5.78;5.18;;;9.80;99.90;;;;;;5053861;28;20218;-86
2022/10/05 06:50:32;;;;;;;4.95;4.50;;;9.80;99.90;;;;;;5053257;28;20225;-86
2022/10/05 06:53:16;;;;;;;6.15;4.93;;;9.90;99.90;;;;;;5053537;28;20216;-86
2022/10/05 06:55:52;;;;;;;5.22;4.72;;;9.90;99.90;;;;;;5053576;28;20204;-86
2022/10/05 06:58:36;;;;;;;5.13;4.25;;;9.90;99.90;;;;;;5045862;28;20232;-86
2022/10/05 07:01:11;;;;;;;6.25;4.25;;;9.90;99.90;;;;;;5052927;28;20201;-85
2022/10/05 07:03:47;;;;;;;3.92;3.63;;;10.00;99.90;;;;;;5053386;28;20205;-85
2022/10/05 07:06:18;;;;;;;3.17;2.97;;;10.10;99.90;;;;;;5053220;28;20233;-85
2022/10/05 07:09:02;;;;;;;5.45;4.50;;;10.20;99.90;;;;;;5052222;28;20228;-86
2022/10/05 07:11:44;;;;;;;4.30;3.90;;;10.20;99.90;;;;;;5051575;28;20228;-85
2022/10/05 07:14:28;;;;;;;6.32;3.65;;;10.20;99.90;;;;;;5050116;28;20236;-85
2022/10/05 07:17:17;;;;;;;4.32;3.90;;;10.30;99.90;;;;;;5051490;28;20221;-87
2022/10/05 07:19:54;;;;;;;3.28;3.08;;;10.30;99.90;;;;;;5051437;28;20206;-85
2022/10/05 07:22:44;;;;;;;4.78;3.78;;;10.30;99.90;;;;;;5052042;28;20217;-86
2022/10/05 07:25:19;;;;;;;3.92;3.58;;;10.30;99.90;;;;;;5052788;28;20209;-85
2022/10/05 07:27:54;;;;;;;8.10;4.38;;;10.30;99.90;;;;;;5052466;28;20221;-85
2022/10/05 07:30:23;;;;;;;4.75;3.55;;;10.30;99.90;;;;;;5045336;28;20224;-86
2022/10/05 07:32:59;;;;;;;4.53;4.13;;;10.40;99.90;;;;;;5052228;28;20351;-86
2022/10/05 07:38:31;;;;;;;5.22;3.80;;;10.60;99.90;;;;;;5048505;28;20208;-85
2022/10/05 07:41:06;;;;;;;9.40;4.15;;;10.60;99.90;;;;;;5052068;28;20281;-85
2022/10/05 07:43:42;;;;;;;4.75;3.83;;;10.70;99.90;;;;;;5052480;28;20208;-85
2022/10/05 07:46:42;;;;;;;4.32;3.78;;;10.80;99.90;;;;;;5046793;28;20243;-85
2022/10/05 07:49:21;;;;;;;8.82;3.92;;;11.00;99.90;;;;;;5052164;28;20208;-85
2022/10/05 07:51:53;;;;;;;3.60;3.30;;;11.00;99.90;;;;;;5052209;28;20232;-85
2022/10/05 07:54:25;;;;;;;18.75;4.35;;;11.20;99.90;;;;;;5045148;28;20308;-85
2022/10/05 07:56:57;;;;;;;4.18;3.65;;;11.40;99.90;;;;;;5051398;28;20225;-85
2022/10/05 07:59:31;;;;;;;5.03;3.90;;;11.60;99.90;;;;;;5058910;28;20203;-85
2022/10/05 08:02:09;;;;;;;6.53;4.25;;;11.70;99.90;;;;;;5053886;28;20197;-85
2022/10/05 08:04:51;;;;;;;5.55;3.65;;;11.90;99.90;;;;;;5052360;28;20205;-85
2022/10/05 08:07:20;;;;;;;3.63;3.15;;;12.00;99.90;;;;;;5044740;28;20309;-85
2022/10/05 08:09:55;;;;;;;7.25;2.70;;;12.10;99.90;;;;;;5051056;28;20202;-85
2022/10/05 08:12:34;;;;;;;4.15;3.10;;;12.20;99.90;;;;;;5062053;28;20216;-84
2022/10/05 08:15:09;;;;;;;2.47;2.28;;;12.30;99.90;;;;;;5052964;28;20239;-86
2022/10/05 08:17:53;;;;;;;2.72;2.47;;;12.40;99.90;;;;;;5052516;28;20221;-86
2022/10/05 08:20:38;;;;;;;2.72;2.45;;;12.70;99.90;;;;;;5052107;28;20206;-86
2022/10/05 08:23:17;;;;;;;2.88;2.65;;;12.90;99.90;;;;;;5052535;28;20202;-81
2022/10/05 08:25:53;;;;;;;5.45;2.42;;;13.20;99.90;;;;;;5052728;28;20216;-81
2022/10/05 08:28:25;;;;;;;2.90;2.60;;;13.40;99.90;;;;;;5052358;28;20337;-83
2022/10/05 08:31:01;;;;;;;6.95;2.55;;;13.60;99.90;;;;;;5032549;28;20226;-79
2022/10/05 08:33:35;;;;;;;3.08;2.55;;;13.80;99.90;;;;;;5032918;28;20213;-85
2022/10/05 08:36:10;;;;;;;2.95;2.55;;;14.00;99.90;;;;;;5034258;28;20229;-86
2022/10/05 08:38:40;;;;;;;3.75;2.80;;;14.10;99.90;;;;;;5051468;28;20202;-86
2022/10/05 08:41:42;;;;;;;2.47;2.28;;;14.20;99.90;;;;;;5057724;28;20193;-86
2022/10/05 08:45:03;;;;;;;2.50;2.30;;;14.40;99.90;;;;;;5050739;28;20284;-86
2022/10/05 08:48:08;;;;;;;2.97;2.63;;;14.60;99.90;;;;;;5045614;28;20229;-86
2022/10/05 08:51:08;;;;;;;2.35;2.15;;;14.70;99.90;;;;;;5034544;28;20205;-86
2022/10/05 08:54:12;;;;;;;2.42;2.08;;;14.90;99.90;;;;;;5036527;28;20206;-86
2022/10/05 08:56:43;;;;;;;2.50;2.10;;;15.20;99.90;;;;;;5038534;28;20222;-83
2022/10/05 08:59:38;;;;;;;3.63;2.17;;;15.50;99.90;;;;;;5049789;28;20216;-83
2022/10/05 09:02:20;;;;;;;3.05;2.10;;;15.90;99.90;;;;;;5050446;28;20206;-83
2022/10/05 09:05:02;;;;;;;2.20;2.03;;;16.50;99.90;;;;;;5052056;28;20228;-83
2022/10/05 09:07:45;;;;;;;4.22;2.22;;;16.90;99.90;;;;;;5045731;28;20225;-83
2022/10/05 09:10:51;;;;;;;2.45;2.28;;;17.30;99.90;;;;;;5050840;28;20213;-83
2022/10/05 09:14:01;;;;;;;3.53;2.70;;;17.90;99.90;;;;;;5037739;28;20217;-83
2022/10/05 09:16:49;;;;;;;6.20;2.42;;;18.10;99.90;;;;;;5047734;28;20218;-81
2022/10/05 09:19:43;;;;;;;3.22;2.65;;;18.10;99.90;;;;;;5050952;28;20198;-82
2022/10/05 09:22:16;;;;;;;3.05;2.10;;;18.00;99.90;;;;;;5063336;28;20209;-82
2022/10/05 09:24:56;;;;;;;2.40;2.15;;;17.90;99.90;;;;;;5047999;28;20210;-82
2022/10/05 09:27:36;;;;;;;3.25;2.55;;;17.90;99.90;;;;;;5044102;28;20233;-83
2022/10/05 09:30:22;;;;;;;2.47;1.88;;;17.90;99.90;;;;;;5050745;28;20212;-82
2022/10/05 09:33:37;;;;;;;3.10;2.83;;;17.90;99.90;;;;;;5052444;28;20226;-82
2022/10/05 09:36:32;;;;;;;3.78;2.70;;;18.20;99.90;;;;;;5053614;28;20228;-85
2022/10/05 09:39:30;;;;;;;6.80;2.50;;;18.10;99.90;;;;;;5054750;28;20206;-84
2022/10/05 09:42:32;;;;;;;2.35;2.10;;;18.10;99.90;;;;;;5054918;28;20209;-84
2022/10/05 09:45:46;;;;;;;2.80;2.33;;;17.90;99.90;;;;;;5041088;28;20201;-84
2022/10/05 09:48:45;;;;;;;4.95;2.35;;;17.70;99.90;;;;;;5047788;28;20213;-84
2022/10/05 09:51:59;;;;;;;4.95;2.80;;;17.60;99.90;;;;;;5053855;28;20201;-84
2022/10/05 09:54:43;;;;;;;2.72;2.25;;;17.60;99.90;;;;;;4994751;28;20196;-85
2022/10/05 09:57:38;;;;;;;3.05;2.50;;;17.60;99.90;;;;;;5051892;28;20222;-84
2022/10/05 10:00:20;;;;;;;2.38;2.00;;;17.90;99.90;;;;;;5052337;28;20202;-85
2022/10/05 10:03:32;;;;;;;2.72;2.28;;;18.30;99.90;;;;;;5053246;28;20197;-85
2022/10/05 10:06:20;;;;;;;2.42;2.22;;;18.70;99.90;;;;;;5054816;28;20198;-84
2022/10/05 10:09:03;;;;;;;3.85;2.40;;;18.80;99.90;;;;;;5054349;28;20963;-84
2022/10/05 10:11:41;;;;;;;3.17;2.58;;;18.70;99.90;;;;;;5060355;28;20233;-84
2022/10/05 10:14:30;;;;;;;2.35;1.95;;;18.70;99.90;;;;;;5053999;28;20208;-84
2022/10/05 10:17:19;;;;;;;2.85;2.20;;;18.70;99.90;;;;;;5058828;28;20224;-84
2022/10/05 10:20:13;;;;;;;2.88;2.67;;;18.60;99.90;;;;;;5074531;28;20201;-81
2022/10/05 10:23:20;;;;;;;2.67;2.47;;;18.50;99.90;;;;;;5049619;28;20225;-81
2022/10/05 10:26:24;;;;;;;3.10;2.15;;;18.30;99.90;;;;;;5048673;28;20223;-80
2022/10/05 10:29:13;;;;;;;2.40;2.22;;;18.00;99.90;;;;;;5050509;28;20204;-80
2022/10/05 10:31:58;;;;;;;3.42;2.75;;;17.80;99.90;;;;;;5051008;28;20290;-82
2022/10/05 10:35:05;;;;;;;5.15;2.38;;;17.50;99.90;;;;;;5047448;28;20208;-82
2022/10/05 10:38:21;;;;;;;2.13;1.92;;;17.50;99.90;;;;;;5038376;28;20233;-81
2022/10/05 10:41:09;;;;;;;2.47;2.22;;;17.60;99.90;;;;;;5050775;28;20202;-81
2022/10/05 10:44:05;;;;;;;2.78;2.40;;;18.10;99.90;;;;;;5056622;28;20213;-85
2022/10/05 10:46:39;;;;;;;2.60;2.15;;;18.60;99.90;;;;;;5053042;28;20226;-84
2022/10/05 10:49:25;;;;;;;3.42;2.55;;;18.90;99.90;;;;;;5052543;28;20212;-80
2022/10/05 10:52:12;;;;;;;4.75;2.80;;;19.20;99.90;;;;;;5053270;28;20217;-85
2022/10/05 10:55:15;;;;;;;3.55;2.78;;;19.10;99.90;;;;;;5065357;28;20241;-83
2022/10/05 10:58:17;;;;;;;2.17;1.98;;;19.30;99.90;;;;;;5048576;28;20225;-85
2022/10/05 11:00:53;;;;;;;2.78;2.20;;;19.50;99.90;;;;;;5032647;28;20214;-83
2022/10/05 11:03:59;;;;;;;2.38;2.17;;;19.80;99.90;;;;;;5051245;28;20224;-83
2022/10/05 11:06:44;;;;;;;5.13;2.83;;;19.90;99.90;;;;;;5074202;28;20231;-84
2022/10/05 11:09:46;;;;;;;6.20;2.80;;;19.90;99.90;;;;;;5041844;28;20209;-84
2022/10/05 11:12:58;;;;;;;5.30;2.78;;;20.00;99.90;;;;;;5053213;28;20208;-85
2022/10/05 11:16:16;;;;;;;3.67;2.58;;;20.20;99.90;;;;;;5043756;28;20202;-85
2022/10/05 11:19:05;;;;;;;3.15;2.50;;;20.40;99.90;;;;;;5048606;28;20193;-82
2022/10/05 11:21:39;;;;;;;2.50;2.30;;;20.60;99.90;;;;;;5051854;28;20197;-85
2022/10/05 11:24:50;;;;;;;2.22;2.03;;;20.90;99.90;;;;;;5050101;28;20197;-84
2022/10/05 11:27:45;;;;;;;2.00;1.90;;;21.10;99.90;;;;;;5048661;28;20222;-85
2022/10/05 11:30:49;;;;;;;2.30;2.15;;;21.20;99.90;;;;;;5051881;28;20205;-84
2022/10/05 11:34:02;;;;;;;3.78;2.58;;;21.10;99.90;;;;;;5064358;28;20193;-84
2022/10/05 11:37:00;;;;;;;2.05;1.95;;;21.00;99.90;;;;;;5012436;28;20234;-84
2022/10/05 11:39:37;;;;;;;3.63;2.75;;;20.70;99.90;;;;;;4979681;28;20308;-84
2022/10/05 11:42:42;;;;;;;2.20;2.00;;;20.60;99.90;;;;;;5040611;28;20212;-84
2022/10/05 11:45:26;;;;;;;3.97;2.80;;;20.60;99.90;;;;;;5042340;28;20217;-83
2022/10/05 11:48:22;;;;;;;2.97;2.45;;;21.00;99.90;;;;;;5052323;28;20229;-85
2022/10/05 11:51:08;;;;;;;4.22;2.50;;;21.00;99.90;;;;;;5048537;28;20201;-84
2022/10/05 11:53:41;;;;;;;2.80;2.33;;;21.20;99.90;;;;;;5051144;28;20193;-87
2022/10/05 11:56:20;;;;;;;3.33;2.08;;;21.50;99.90;;;;;;5051960;28;20205;-88
2022/10/05 11:58:55;;;;;;;3.05;2.20;;;21.60;99.90;;;;;;5051795;28;20221;-87
2022/10/05 12:01:33;;;;;;;4.38;2.20;;;21.80;99.90;;;;;;5052354;28;20212;-88
2022/10/05 12:04:16;;;;;;;3.80;2.35;;;22.00;99.90;;;;;;5051333;28;20217;-88
2022/10/05 12:07:02;;;;;;;3.05;2.33;;;22.20;99.90;;;;;;5052113;28;20221;-88
2022/10/05 12:10:12;;;;;;;2.47;2.10;;;22.40;99.90;;;;;;5046436;28;20212;-88
2022/10/05 12:12:41;;;;;;;3.17;2.33;;;22.50;99.90;;;;;;5043083;28;20199;-89
2022/10/05 12:15:18;;;;;;;2.47;2.28;;;22.60;99.90;;;;;;5052098;28;20205;-88
2022/10/05 12:18:00;;;;;;;3.13;2.33;;;23.10;99.90;;;;;;5054259;28;20231;-89
2022/10/05 12:20:38;;;;;;;2.15;2.05;;;23.40;99.90;;;;;;5053465;28;20284;-87
2022/10/05 12:23:18;;;;;;;2.05;1.90;;;23.70;99.90;;;;;;5053164;28;20308;-88
2022/10/05 12:25:53;;;;;;;5.07;2.50;;;23.70;99.90;;;;;;5052749;28;20236;-88
2022/10/05 12:28:33;;;;;;;3.40;2.67;;;23.30;99.90;;;;;;5051850;28;20205;-88
2022/10/05 12:31:29;;;;;;;2.53;2.33;;;23.00;99.90;;;;;;5052314;28;20228;-88
2022/10/05 12:34:10;;;;;;;3.90;2.47;;;22.50;99.90;;;;;;5066550;28;20280;-87
2022/10/05 12:36:45;;;;;;;3.15;2.50;;;22.10;99.90;;;;;;5057031;28;20224;-88
2022/10/05 12:39:39;;;;;;;3.20;2.30;;;21.70;99.90;;;;;;5045622;28;20205;-88
2022/10/05 12:42:19;;;;;;;3.40;2.65;;;21.50;99.90;;;;;;5051954;28;20259;-87
2022/10/05 12:45:03;;;;;;;4.32;2.70;;;21.50;99.90;;;;;;5050969;28;20213;-83
2022/10/05 12:47:44;;;;;;;3.03;2.75;;;21.40;99.90;;;;;;5032530;28;20226;-90
2022/10/05 12:50:26;;;;;;;2.05;1.80;;;21.40;99.90;;;;;;5045951;28;20256;-88
2022/10/05 12:53:21;;;;;;;2.22;2.13;;;21.40;99.90;;;;;;5052347;28;20301;-88
2022/10/05 12:56:01;;;;;;;2.10;2.00;;;21.40;99.90;;;;;;5053002;28;20216;-87
2022/10/05 12:58:39;;;;;;;2.20;2.00;;;21.20;99.90;;;;;;5051165;28;20204;-87
2022/10/05 13:01:19;;;;;;;5.43;2.53;;;21.20;99.90;;;;;;5051765;28;20260;-88
2022/10/05 13:04:03;;;;;;;2.55;2.35;;;21.20;99.90;;;;;;5051632;28;20217;-87
2022/10/05 13:06:43;;;;;;;2.03;1.92;;;21.30;99.90;;;;;;5052012;28;20259;-88
2022/10/05 13:09:18;;;;;;;2.38;2.17;;;21.40;99.90;;;;;;5055227;28;20190;-89
2022/10/05 13:11:55;;;;;;;2.25;2.05;;;21.40;99.90;;;;;;5055717;28;20243;-89
2022/10/05 13:14:41;;;;;;;1.85;1.75;;;21.20;99.90;;;;;;5055724;28;20205;-89
2022/10/05 13:17:18;;;;;;;2.55;2.10;;;21.10;99.90;;;;;;5055603;28;20226;-89
2022/10/05 13:19:55;;;;;;;2.05;1.83;;;21.10;99.90;;;;;;5055859;28;20202;-89
2022/10/05 13:22:34;;;;;;;3.78;2.28;;;21.10;99.90;;;;;;5056060;28;20296;-88
2022/10/05 13:25:18;;;;;;;4.72;2.75;;;21.20;99.90;;;;;;5055324;28;20320;-88
2022/10/05 13:28:09;;;;;;;2.92;2.03;;;21.30;99.90;;;;;;5055025;28;20221;-89
2022/10/05 13:30:44;;;;;;;4.03;2.03;;;21.50;99.90;;;;;;5055332;28;20198;-89
2022/10/05 13:33:32;;;;;;;3.15;2.00;;;21.50;99.90;;;;;;5055420;28;20202;-88
2022/10/05 13:36:11;;;;;;;2.60;2.40;;;21.60;99.90;;;;;;5055881;28;20217;-88
2022/10/05 13:38:52;;;;;;;7.68;2.55;;;21.70;99.90;;;;;;5054919;28;20220;-88
2022/10/05 13:41:48;;;;;;;3.38;2.33;;;21.80;99.90;;;;;;5055813;28;20296;-89
2022/10/05 13:44:31;;;;;;;2.70;2.33;;;21.70;99.90;;;;;;5054632;28;20234;-89
2022/10/05 13:47:04;;;;;;;2.28;2.05;;;21.40;99.90;;;;;;5055336;28;20225;-89
2022/10/05 13:49:41;;;;;;;3.97;2.55;;;21.20;99.90;;;;;;5054652;28;20208;-89
2022/10/05 13:52:29;;;;;;;3.13;2.20;;;21.10;99.90;;;;;;5054497;28;20201;-89
2022/10/05 13:55:14;;;;;;;2.63;2.40;;;21.00;99.90;;;;;;5061408;28;20201;-89
2022/10/05 13:57:58;;;;;;;2.47;1.85;;;21.00;99.90;;;;;;5070106;28;20329;-86
2022/10/05 14:00:30;;;;;;;2.90;2.35;;;20.80;99.90;;;;;;5054734;28;20198;-84
2022/10/05 14:03:00;;;;;;;6.78;2.25;;;20.80;99.90;;;;;;5055417;28;20270;-81
2022/10/05 14:05:33;;;;;;;2.40;2.22;;;20.80;99.90;;;;;;5054685;28;20281;-81
2022/10/05 14:08:18;;;;;;;2.10;2.00;;;20.80;99.90;;;;;;5054559;28;20240;-81
2022/10/05 14:10:49;;;;;;;2.72;2.53;;;20.80;99.90;;;;;;5054568;28;20210;-80